sensor_id;sensor_type;location;lat;lon;timestamp;temperature;humidity
18091;DHT22;9172;49.948;9.208;2023-12-14T00:00:51;6.70;99.90
18091;DHT22;9172;49.948;9.208;2023-12-14T00:03:20;6.70;99.90
18091;DHT22;9172;49.948;9.208;2023-12-14T00:05:48;6.70;99.90
18091;DHT22;9172;49.948;9.208;2023-12-14T00:08:17;6.60;99.90
18091;DHT22;9172;49.948;9.208;2023-12-14T00:10:45;6.70;99.90
18091;DHT22;9172;49.948;9.208;2023-12-14T00:13:14;6.70;99.90
18091;DHT22;9172;49.948;9.208;2023-12-14T00:15:49;6.70;99.90
18091;DHT22;9172;49.948;9.208;2023-12-14T00:18:18;6.70;99.90
18091;DHT22;9172;49.948;9.208;2023-12-14T00:20:55;6.70;99.90
18091;DHT22;9172;49.948;9.208;2023-12-14T00:23:24;6.60;99.90
18091;DHT22;9172;49.948;9.208;2023-12-14T00:25:53;6.70;99.90
18091;DHT22;9172;49.948;9.208;2023-12-14T00:28:22;6.70;99.90
18091;DHT22;9172;49.948;9.208;2023-12-14T00:30:50;6.70;99.90
18091;DHT22;9172;49.948;9.208;2023-12-14T00:33:19;6.50;99.90
18091;DHT22;9172;49.948;9.208;2023-12-14T00:35:48;6.50;99.90
18091;DHT22;9172;49.948;9.208;2023-12-14T00:38:16;6.50;99.90
18091;DHT22;9172;49.948;9.208;2023-12-14T00:40:45;6.60;99.90
18091;DHT22;9172;49.948;9.208;2023-12-14T00:43:13;6.60;99.90
18091;DHT22;9172;49.948;9.208;2023-12-14T00:45:43;6.60;99.90
18091;DHT22;9172;49.948;9.208;2023-12-14T00:48:12;6.60;99.90
18091;DHT22;9172;49.948;9.208;2023-12-14T00:50:40;6.70;99.90
18091;DHT22;9172;49.948;9.208;2023-12-14T00:53:09;6.70;99.90
18091;DHT22;9172;49.948;9.208;2023-12-14T00:55:37;6.70;99.90
18091;DHT22;9172;49.948;9.208;2023-12-14T00:58:06;6.70;99.90
18091;DHT22;9172;49.948;9.208;2023-12-14T01:00:34;6.80;99.90
18091;DHT22;9172;49.948;9.208;2023-12-14T01:03:03;6.70;99.90
18091;DHT22;9172;49.948;9.208;2023-12-14T01:05:31;6.70;99.90
18091;DHT22;9172;49.948;9.208;2023-12-14T01:08:00;6.80;99.90
18091;DHT22;9172;49.948;9.208;2023-12-14T01:13:08;6.70;99.90
18091;DHT22;9172;49.948;9.208;2023-12-14T01:15:37;6.60;99.90
18091;DHT22;9172;49.948;9.208;2023-12-14T01:18:06;6.60;99.90
18091;DHT22;9172;49.948;9.208;2023-12-14T01:20:35;6.60;99.90
18091;DHT22;9172;49.948;9.208;2023-12-14T01:23:03;6.60;99.90
18091;DHT22;9172;49.948;9.208;2023-12-14T01:25:32;6.70;99.90
18091;DHT22;9172;49.948;9.208;2023-12-14T01:28:00;6.70;99.90
18091;DHT22;9172;49.948;9.208;2023-12-14T01:30:29;6.70;99.90
18091;DHT22;9172;49.948;9.208;2023-12-14T01:35:34;6.80;99.90
18091;DHT22;9172;49.948;9.208;2023-12-14T01:38:03;6.80;99.90
18091;DHT22;9172;49.948;9.208;2023-12-14T01:40:31;8.90;99.90
18091;DHT22;9172;49.948;9.208;2023-12-14T01:43:10;6.80;99.90
18091;DHT22;9172;49.948;9.208;2023-12-14T01:45:38;6.70;99.90
18091;DHT22;9172;49.948;9.208;2023-12-14T01:48:07;6.70;99.90
18091;DHT22;9172;49.948;9.208;2023-12-14T01:53:18;6.60;99.90
18091;DHT22;9172;49.948;9.208;2023-12-14T01:55:47;6.60;99.90
18091;DHT22;9172;49.948;9.208;2023-12-14T02:00:57;6.60;99.90
18091;DHT22;9172;49.948;9.208;2023-12-14T02:03:26;6.60;99.90
18091;DHT22;9172;49.948;9.208;2023-12-14T02:05:54;6.60;99.90
18091;DHT22;9172;49.948;9.208;2023-12-14T02:08:25;6.60;99.90
18091;DHT22;9172;49.948;9.208;2023-12-14T02:13:33;6.70;99.90
18091;DHT22;9172;49.948;9.208;2023-12-14T02:16:02;6.70;99.90
18091;DHT22;9172;49.948;9.208;2023-12-14T02:18:30;6.70;99.90
18091;DHT22;9172;49.948;9.208;2023-12-14T02:20:59;6.70;99.90
18091;DHT22;9172;49.948;9.208;2023-12-14T02:26:05;6.70;99.90
18091;DHT22;9172;49.948;9.208;2023-12-14T02:28:33;6.70;99.90
18091;DHT22;9172;49.948;9.208;2023-12-14T02:31:02;6.80;99.90
18091;DHT22;9172;49.948;9.208;2023-12-14T02:33:31;6.80;99.90
18091;DHT22;9172;49.948;9.208;2023-12-14T02:35:59;6.80;99.90
18091;DHT22;9172;49.948;9.208;2023-12-14T02:38:30;6.80;99.90
18091;DHT22;9172;49.948;9.208;2023-12-14T02:40:59;6.70;99.90
18091;DHT22;9172;49.948;9.208;2023-12-14T02:43:27;6.70;99.90
18091;DHT22;9172;49.948;9.208;2023-12-14T02:45:58;6.70;99.90
18091;DHT22;9172;49.948;9.208;2023-12-14T02:48:29;6.70;99.90
18091;DHT22;9172;49.948;9.208;2023-12-14T02:50:57;6.80;99.90
18091;DHT22;9172;49.948;9.208;2023-12-14T02:53:28;6.80;99.90
18091;DHT22;9172;49.948;9.208;2023-12-14T02:55:56;6.90;99.90
18091;DHT22;9172;49.948;9.208;2023-12-14T02:58:27;6.90;99.90
18091;DHT22;9172;49.948;9.208;2023-12-14T03:00:55;7.00;99.90
18091;DHT22;9172;49.948;9.208;2023-12-14T03:03:24;7.00;99.90
18091;DHT22;9172;49.948;9.208;2023-12-14T03:08:37;7.00;99.90
18091;DHT22;9172;49.948;9.208;2023-12-14T03:11:06;7.00;99.90
18091;DHT22;9172;49.948;9.208;2023-12-14T03:13:35;6.90;99.90
18091;DHT22;9172;49.948;9.208;2023-12-14T03:16:04;6.80;99.90
18091;DHT22;9172;49.948;9.208;2023-12-14T03:18:33;6.80;99.90
18091;DHT22;9172;49.948;9.208;2023-12-14T03:21:01;6.80;99.90
18091;DHT22;9172;49.948;9.208;2023-12-14T03:23:30;6.80;99.90
18091;DHT22;9172;49.948;9.208;2023-12-14T03:25:59;6.80;99.90
18091;DHT22;9172;49.948;9.208;2023-12-14T03:28:27;6.80;99.90
18091;DHT22;9172;49.948;9.208;2023-12-14T03:30:56;6.90;99.90
18091;DHT22;9172;49.948;9.208;2023-12-14T03:33:24;6.90;99.90
18091;DHT22;9172;49.948;9.208;2023-12-14T03:35:53;7.00;99.90
18091;DHT22;9172;49.948;9.208;2023-12-14T03:38:21;7.00;99.90
18091;DHT22;9172;49.948;9.208;2023-12-14T03:40:50;7.00;99.90
18091;DHT22;9172;49.948;9.208;2023-12-14T03:43:19;7.00;99.90
18091;DHT22;9172;49.948;9.208;2023-12-14T03:45:47;6.90;99.90
18091;DHT22;9172;49.948;9.208;2023-12-14T03:48:16;6.80;99.90
18091;DHT22;9172;49.948;9.208;2023-12-14T03:50:45;6.80;99.90
18091;DHT22;9172;49.948;9.208;2023-12-14T03:53:13;6.80;99.90
18091;DHT22;9172;49.948;9.208;2023-12-14T03:55:42;6.80;99.90
18091;DHT22;9172;49.948;9.208;2023-12-14T03:58:10;6.90;99.90
18091;DHT22;9172;49.948;9.208;2023-12-14T04:00:39;6.90;99.90
18091;DHT22;9172;49.948;9.208;2023-12-14T04:03:08;6.90;99.90
18091;DHT22;9172;49.948;9.208;2023-12-14T04:05:37;7.00;99.90
18091;DHT22;9172;49.948;9.208;2023-12-14T04:08:06;7.00;99.90
18091;DHT22;9172;49.948;9.208;2023-12-14T04:10:34;6.90;99.90
18091;DHT22;9172;49.948;9.208;2023-12-14T04:13:03;6.90;99.90
18091;DHT22;9172;49.948;9.208;2023-12-14T04:15:32;6.90;99.90
18091;DHT22;9172;49.948;9.208;2023-12-14T04:18:00;7.00;99.90
18091;DHT22;9172;49.948;9.208;2023-12-14T04:20:29;6.90;99.90
18091;DHT22;9172;49.948;9.208;2023-12-14T04:22:57;6.90;99.90
18091;DHT22;9172;49.948;9.208;2023-12-14T04:25:26;6.90;99.90
18091;DHT22;9172;49.948;9.208;2023-12-14T04:27:54;6.90;99.90
18091;DHT22;9172;49.948;9.208;2023-12-14T04:30:23;6.90;99.90
18091;DHT22;9172;49.948;9.208;2023-12-14T04:32:52;6.90;99.90
18091;DHT22;9172;49.948;9.208;2023-12-14T04:35:20;6.90;99.90
18091;DHT22;9172;49.948;9.208;2023-12-14T04:37:50;6.90;99.90
18091;DHT22;9172;49.948;9.208;2023-12-14T04:40:18;6.80;99.90
18091;DHT22;9172;49.948;9.208;2023-12-14T04:42:47;6.80;99.90
18091;DHT22;9172;49.948;9.208;2023-12-14T04:45:15;6.80;99.90
18091;DHT22;9172;49.948;9.208;2023-12-14T04:47:44;6.80;99.90
18091;DHT22;9172;49.948;9.208;2023-12-14T04:50:13;6.70;99.90
18091;DHT22;9172;49.948;9.208;2023-12-14T04:52:42;6.80;99.90
18091;DHT22;9172;49.948;9.208;2023-12-14T04:55:11;6.80;99.90
18091;DHT22;9172;49.948;9.208;2023-12-14T04:57:39;6.80;99.90
18091;DHT22;9172;49.948;9.208;2023-12-14T05:00:09;6.70;99.90
18091;DHT22;9172;49.948;9.208;2023-12-14T05:02:38;6.80;99.90
18091;DHT22;9172;49.948;9.208;2023-12-14T05:05:07;6.80;99.90
18091;DHT22;9172;49.948;9.208;2023-12-14T05:07:36;6.70;99.90
18091;DHT22;9172;49.948;9.208;2023-12-14T05:10:07;6.80;99.90
18091;DHT22;9172;49.948;9.208;2023-12-14T05:12:36;6.80;99.90
18091;DHT22;9172;49.948;9.208;2023-12-14T05:15:07;6.90;99.90
18091;DHT22;9172;49.948;9.208;2023-12-14T05:17:37;6.90;99.90
18091;DHT22;9172;49.948;9.208;2023-12-14T05:20:09;7.00;99.90
18091;DHT22;9172;49.948;9.208;2023-12-14T05:22:38;7.00;99.90
18091;DHT22;9172;49.948;9.208;2023-12-14T05:25:07;7.00;99.90
18091;DHT22;9172;49.948;9.208;2023-12-14T05:27:37;6.90;99.90
18091;DHT22;9172;49.948;9.208;2023-12-14T05:30:07;6.90;99.90
18091;DHT22;9172;49.948;9.208;2023-12-14T05:32:36;6.90;99.90
18091;DHT22;9172;49.948;9.208;2023-12-14T05:35:06;6.80;99.90
18091;DHT22;9172;49.948;9.208;2023-12-14T05:37:35;6.60;99.90
18091;DHT22;9172;49.948;9.208;2023-12-14T05:40:05;6.50;99.90
18091;DHT22;9172;49.948;9.208;2023-12-14T05:42:34;6.40;99.90
18091;DHT22;9172;49.948;9.208;2023-12-14T05:45:04;6.40;99.90
18091;DHT22;9172;49.948;9.208;2023-12-14T05:47:32;6.40;99.90
18091;DHT22;9172;49.948;9.208;2023-12-14T05:50:02;6.40;99.90
18091;DHT22;9172;49.948;9.208;2023-12-14T05:52:31;6.50;99.90
18091;DHT22;9172;49.948;9.208;2023-12-14T05:54:59;6.50;99.90
18091;DHT22;9172;49.948;9.208;2023-12-14T05:57:28;6.50;99.90
18091;DHT22;9172;49.948;9.208;2023-12-14T05:59:57;6.50;99.90
18091;DHT22;9172;49.948;9.208;2023-12-14T06:02:25;6.40;99.90
18091;DHT22;9172;49.948;9.208;2023-12-14T06:04:54;6.50;99.90
18091;DHT22;9172;49.948;9.208;2023-12-14T06:07:24;6.50;99.90
18091;DHT22;9172;49.948;9.208;2023-12-14T06:09:52;6.50;99.90
18091;DHT22;9172;49.948;9.208;2023-12-14T06:14:58;6.50;99.90
18091;DHT22;9172;49.948;9.208;2023-12-14T06:17:27;6.50;99.90
18091;DHT22;9172;49.948;9.208;2023-12-14T06:19:56;6.50;99.90
18091;DHT22;9172;49.948;9.208;2023-12-14T06:22:24;6.60;99.90
18091;DHT22;9172;49.948;9.208;2023-12-14T06:24:54;6.60;99.90
18091;DHT22;9172;49.948;9.208;2023-12-14T06:27:23;6.60;99.90
18091;DHT22;9172;49.948;9.208;2023-12-14T06:32:33;6.50;99.90
18091;DHT22;9172;49.948;9.208;2023-12-14T06:35:02;6.50;99.90
18091;DHT22;9172;49.948;9.208;2023-12-14T06:37:31;6.50;99.90
18091;DHT22;9172;49.948;9.208;2023-12-14T06:40:00;6.50;99.90
18091;DHT22;9172;49.948;9.208;2023-12-14T06:42:28;6.50;99.90
18091;DHT22;9172;49.948;9.208;2023-12-14T06:44:58;6.50;99.90
18091;DHT22;9172;49.948;9.208;2023-12-14T06:47:27;6.50;99.90
18091;DHT22;9172;49.948;9.208;2023-12-14T06:49:56;6.50;99.90
18091;DHT22;9172;49.948;9.208;2023-12-14T06:52:24;6.50;99.90
18091;DHT22;9172;49.948;9.208;2023-12-14T06:54:53;6.50;99.90
18091;DHT22;9172;49.948;9.208;2023-12-14T06:57:22;6.50;99.90
18091;DHT22;9172;49.948;9.208;2023-12-14T06:59:50;6.40;99.90
18091;DHT22;9172;49.948;9.208;2023-12-14T07:02:19;6.40;99.90
18091;DHT22;9172;49.948;9.208;2023-12-14T07:04:48;6.40;99.90
18091;DHT22;9172;49.948;9.208;2023-12-14T07:07:17;6.50;99.90
18091;DHT22;9172;49.948;9.208;2023-12-14T07:09:45;6.50;99.90
18091;DHT22;9172;49.948;9.208;2023-12-14T07:12:14;6.60;99.90
18091;DHT22;9172;49.948;9.208;2023-12-14T07:14:42;6.60;99.90
18091;DHT22;9172;49.948;9.208;2023-12-14T07:17:14;6.60;99.90
18091;DHT22;9172;49.948;9.208;2023-12-14T07:19:42;6.60;99.90
18091;DHT22;9172;49.948;9.208;2023-12-14T07:22:11;6.60;99.90
18091;DHT22;9172;49.948;9.208;2023-12-14T07:24:40;6.60;99.90
18091;DHT22;9172;49.948;9.208;2023-12-14T07:27:08;6.60;99.90
18091;DHT22;9172;49.948;9.208;2023-12-14T07:29:37;6.70;99.90
18091;DHT22;9172;49.948;9.208;2023-12-14T07:32:06;6.70;99.90
18091;DHT22;9172;49.948;9.208;2023-12-14T07:34:35;6.70;99.90
18091;DHT22;9172;49.948;9.208;2023-12-14T07:39:52;6.70;99.90
18091;DHT22;9172;49.948;9.208;2023-12-14T07:42:21;6.80;99.90
18091;DHT22;9172;49.948;9.208;2023-12-14T07:44:51;6.80;99.90
18091;DHT22;9172;49.948;9.208;2023-12-14T07:47:20;6.70;99.90
18091;DHT22;9172;49.948;9.208;2023-12-14T07:49:48;6.70;99.90
18091;DHT22;9172;49.948;9.208;2023-12-14T07:52:17;6.70;99.90
18091;DHT22;9172;49.948;9.208;2023-12-14T07:54:47;6.70;99.90
18091;DHT22;9172;49.948;9.208;2023-12-14T07:57:16;6.60;99.90
18091;DHT22;9172;49.948;9.208;2023-12-14T07:59:44;6.60;99.90
18091;DHT22;9172;49.948;9.208;2023-12-14T08:02:13;6.60;99.90
18091;DHT22;9172;49.948;9.208;2023-12-14T08:04:42;6.60;99.90
18091;DHT22;9172;49.948;9.208;2023-12-14T08:07:11;6.60;99.90
18091;DHT22;9172;49.948;9.208;2023-12-14T08:09:39;6.60;99.90
18091;DHT22;9172;49.948;9.208;2023-12-14T08:12:08;6.60;99.90
18091;DHT22;9172;49.948;9.208;2023-12-14T08:14:37;6.70;99.90
18091;DHT22;9172;49.948;9.208;2023-12-14T08:17:07;6.70;99.90
18091;DHT22;9172;49.948;9.208;2023-12-14T08:19:38;6.70;99.90
18091;DHT22;9172;49.948;9.208;2023-12-14T08:22:07;6.70;99.90
18091;DHT22;9172;49.948;9.208;2023-12-14T08:24:37;6.70;99.90
18091;DHT22;9172;49.948;9.208;2023-12-14T08:27:06;6.70;99.90
18091;DHT22;9172;49.948;9.208;2023-12-14T08:29:36;6.70;99.90
18091;DHT22;9172;49.948;9.208;2023-12-14T08:32:07;6.70;99.90
18091;DHT22;9172;49.948;9.208;2023-12-14T08:34:35;6.70;99.90
18091;DHT22;9172;49.948;9.208;2023-12-14T08:37:05;6.80;99.90
18091;DHT22;9172;49.948;9.208;2023-12-14T08:39:34;6.80;99.90
18091;DHT22;9172;49.948;9.208;2023-12-14T08:42:03;6.80;99.90
18091;DHT22;9172;49.948;9.208;2023-12-14T08:44:32;6.80;99.90
18091;DHT22;9172;49.948;9.208;2023-12-14T08:47:01;6.70;99.90
18091;DHT22;9172;49.948;9.208;2023-12-14T08:49:32;6.70;99.90
18091;DHT22;9172;49.948;9.208;2023-12-14T08:52:00;6.70;99.90
18091;DHT22;9172;49.948;9.208;2023-12-14T08:54:29;6.70;99.90
18091;DHT22;9172;49.948;9.208;2023-12-14T08:56:58;6.70;99.90
18091;DHT22;9172;49.948;9.208;2023-12-14T09:02:18;6.70;99.90
18091;DHT22;9172;49.948;9.208;2023-12-14T09:04:49;6.70;99.90
18091;DHT22;9172;49.948;9.208;2023-12-14T09:07:19;6.70;99.90
18091;DHT22;9172;49.948;9.208;2023-12-14T09:09:48;6.70;99.90
18091;DHT22;9172;49.948;9.208;2023-12-14T09:12:17;6.70;99.90
18091;DHT22;9172;49.948;9.208;2023-12-14T09:14:46;6.70;99.90
18091;DHT22;9172;49.948;9.208;2023-12-14T09:17:15;6.70;99.90
18091;DHT22;9172;49.948;9.208;2023-12-14T09:19:43;6.70;99.90
18091;DHT22;9172;49.948;9.208;2023-12-14T09:22:12;6.80;99.90
18091;DHT22;9172;49.948;9.208;2023-12-14T09:24:41;6.70;99.90
18091;DHT22;9172;49.948;9.208;2023-12-14T09:27:09;6.70;99.90
18091;DHT22;9172;49.948;9.208;2023-12-14T09:29:38;6.70;99.90
18091;DHT22;9172;49.948;9.208;2023-12-14T09:32:08;6.70;99.90
18091;DHT22;9172;49.948;9.208;2023-12-14T09:34:37;6.80;99.90
18091;DHT22;9172;49.948;9.208;2023-12-14T09:37:05;6.80;99.90
18091;DHT22;9172;49.948;9.208;2023-12-14T09:39:35;6.80;99.90
18091;DHT22;9172;49.948;9.208;2023-12-14T09:42:05;6.80;99.90
18091;DHT22;9172;49.948;9.208;2023-12-14T09:44:35;6.80;99.90
18091;DHT22;9172;49.948;9.208;2023-12-14T09:47:08;6.80;99.90
18091;DHT22;9172;49.948;9.208;2023-12-14T09:49:38;6.80;99.90
18091;DHT22;9172;49.948;9.208;2023-12-14T09:52:08;6.80;99.90
18091;DHT22;9172;49.948;9.208;2023-12-14T09:54:37;6.80;99.90
18091;DHT22;9172;49.948;9.208;2023-12-14T09:57:05;6.80;99.90
18091;DHT22;9172;49.948;9.208;2023-12-14T10:02:17;6.80;99.90
18091;DHT22;9172;49.948;9.208;2023-12-14T10:04:47;6.70;99.90
18091;DHT22;9172;49.948;9.208;2023-12-14T10:07:16;6.70;99.90
18091;DHT22;9172;49.948;9.208;2023-12-14T10:09:44;6.60;99.90
18091;DHT22;9172;49.948;9.208;2023-12-14T10:12:14;6.60;99.90
18091;DHT22;9172;49.948;9.208;2023-12-14T10:14:45;6.60;99.90
18091;DHT22;9172;49.948;9.208;2023-12-14T10:17:19;6.60;99.90
18091;DHT22;9172;49.948;9.208;2023-12-14T10:19:49;6.50;99.90
18091;DHT22;9172;49.948;9.208;2023-12-14T10:22:17;6.50;99.90
18091;DHT22;9172;49.948;9.208;2023-12-14T10:24:47;6.50;99.90
18091;DHT22;9172;49.948;9.208;2023-12-14T10:27:16;6.50;99.90
18091;DHT22;9172;49.948;9.208;2023-12-14T10:29:45;6.40;99.90
18091;DHT22;9172;49.948;9.208;2023-12-14T10:32:14;6.40;99.90
18091;DHT22;9172;49.948;9.208;2023-12-14T10:34:43;6.40;99.90
18091;DHT22;9172;49.948;9.208;2023-12-14T10:37:12;6.40;99.90
18091;DHT22;9172;49.948;9.208;2023-12-14T10:39:43;6.40;99.90
18091;DHT22;9172;49.948;9.208;2023-12-14T10:42:11;6.40;99.90
18091;DHT22;9172;49.948;9.208;2023-12-14T10:44:42;6.40;99.90
18091;DHT22;9172;49.948;9.208;2023-12-14T10:47:11;6.40;99.90
18091;DHT22;9172;49.948;9.208;2023-12-14T10:49:42;6.30;99.90
18091;DHT22;9172;49.948;9.208;2023-12-14T10:55:15;6.40;99.90
18091;DHT22;9172;49.948;9.208;2023-12-14T10:57:44;6.30;99.90
18091;DHT22;9172;49.948;9.208;2023-12-14T11:00:20;6.30;99.90
18091;DHT22;9172;49.948;9.208;2023-12-14T11:02:54;6.30;99.90
18091;DHT22;9172;49.948;9.208;2023-12-14T11:05:24;6.40;99.90
18091;DHT22;9172;49.948;9.208;2023-12-14T11:07:59;6.40;99.90
18091;DHT22;9172;49.948;9.208;2023-12-14T11:10:36;6.40;99.90
18091;DHT22;9172;49.948;9.208;2023-12-14T11:13:02;6.40;99.90
18091;DHT22;9172;49.948;9.208;2023-12-14T11:15:33;6.40;99.90
18091;DHT22;9172;49.948;9.208;2023-12-14T11:18:21;6.40;99.90
18091;DHT22;9172;49.948;9.208;2023-12-14T11:20:52;6.40;99.90
18091;DHT22;9172;49.948;9.208;2023-12-14T11:23:29;6.40;99.90
18091;DHT22;9172;49.948;9.208;2023-12-14T11:28:36;6.40;99.90
18091;DHT22;9172;49.948;9.208;2023-12-14T11:31:07;6.40;99.90
18091;DHT22;9172;49.948;9.208;2023-12-14T11:33:37;6.40;99.90
18091;DHT22;9172;49.948;9.208;2023-12-14T11:36:07;6.50;99.90
18091;DHT22;9172;49.948;9.208;2023-12-14T11:38:36;6.50;99.90
18091;DHT22;9172;49.948;9.208;2023-12-14T11:41:05;6.40;99.90
18091;DHT22;9172;49.948;9.208;2023-12-14T11:43:40;6.50;99.90
18091;DHT22;9172;49.948;9.208;2023-12-14T11:46:09;6.50;99.90
18091;DHT22;9172;49.948;9.208;2023-12-14T11:48:38;6.50;99.90
18091;DHT22;9172;49.948;9.208;2023-12-14T11:51:07;6.50;99.90
18091;DHT22;9172;49.948;9.208;2023-12-14T11:53:37;6.50;99.90
18091;DHT22;9172;49.948;9.208;2023-12-14T11:56:08;6.50;99.90
18091;DHT22;9172;49.948;9.208;2023-12-14T11:58:39;6.50;99.90
18091;DHT22;9172;49.948;9.208;2023-12-14T12:01:15;6.50;99.90
18091;DHT22;9172;49.948;9.208;2023-12-14T12:03:45;6.50;99.90
18091;DHT22;9172;49.948;9.208;2023-12-14T12:06:23;6.50;99.90
18091;DHT22;9172;49.948;9.208;2023-12-14T12:08:53;6.50;99.90
18091;DHT22;9172;49.948;9.208;2023-12-14T12:11:22;6.50;99.90
18091;DHT22;9172;49.948;9.208;2023-12-14T12:13:52;6.50;99.90
18091;DHT22;9172;49.948;9.208;2023-12-14T12:16:21;6.50;99.90
18091;DHT22;9172;49.948;9.208;2023-12-14T12:18:50;6.40;99.90
18091;DHT22;9172;49.948;9.208;2023-12-14T12:23:55;6.40;99.90
18091;DHT22;9172;49.948;9.208;2023-12-14T12:26:24;6.40;99.90
18091;DHT22;9172;49.948;9.208;2023-12-14T12:28:53;6.40;99.90
18091;DHT22;9172;49.948;9.208;2023-12-14T12:31:25;6.50;99.90
18091;DHT22;9172;49.948;9.208;2023-12-14T12:33:56;6.50;99.90
18091;DHT22;9172;49.948;9.208;2023-12-14T12:36:24;6.50;99.90
18091;DHT22;9172;49.948;9.208;2023-12-14T12:38:54;6.40;99.90
18091;DHT22;9172;49.948;9.208;2023-12-14T12:41:22;6.40;99.90
18091;DHT22;9172;49.948;9.208;2023-12-14T12:43:54;6.50;99.90
18091;DHT22;9172;49.948;9.208;2023-12-14T12:46:22;6.50;99.90
18091;DHT22;9172;49.948;9.208;2023-12-14T12:48:51;6.50;99.90
18091;DHT22;9172;49.948;9.208;2023-12-14T12:51:20;6.50;99.90
18091;DHT22;9172;49.948;9.208;2023-12-14T12:53:48;6.50;99.90
18091;DHT22;9172;49.948;9.208;2023-12-14T12:56:17;6.60;99.90
18091;DHT22;9172;49.948;9.208;2023-12-14T12:58:45;6.60;99.90
18091;DHT22;9172;49.948;9.208;2023-12-14T13:01:19;6.60;99.90
18091;DHT22;9172;49.948;9.208;2023-12-14T13:03:52;6.60;99.90
18091;DHT22;9172;49.948;9.208;2023-12-14T13:06:21;6.60;99.90
18091;DHT22;9172;49.948;9.208;2023-12-14T13:08:50;6.60;99.90
18091;DHT22;9172;49.948;9.208;2023-12-14T13:11:18;6.60;99.90
18091;DHT22;9172;49.948;9.208;2023-12-14T13:13:47;6.70;99.90
18091;DHT22;9172;49.948;9.208;2023-12-14T13:16:15;6.70;99.90
18091;DHT22;9172;49.948;9.208;2023-12-14T13:18:44;6.70;99.90
18091;DHT22;9172;49.948;9.208;2023-12-14T13:21:13;6.80;99.90
18091;DHT22;9172;49.948;9.208;2023-12-14T13:23:42;6.80;99.90
18091;DHT22;9172;49.948;9.208;2023-12-14T13:26:11;6.90;99.90
18091;DHT22;9172;49.948;9.208;2023-12-14T13:28:39;6.90;99.90
18091;DHT22;9172;49.948;9.208;2023-12-14T13:31:08;6.90;99.90
18091;DHT22;9172;49.948;9.208;2023-12-14T13:33:37;6.90;99.90
18091;DHT22;9172;49.948;9.208;2023-12-14T13:36:06;6.90;99.90
18091;DHT22;9172;49.948;9.208;2023-12-14T13:38:36;6.90;99.90
18091;DHT22;9172;49.948;9.208;2023-12-14T13:41:05;7.00;99.90
18091;DHT22;9172;49.948;9.208;2023-12-14T13:43:33;6.90;99.90
18091;DHT22;9172;49.948;9.208;2023-12-14T13:46:02;6.90;99.90
18091;DHT22;9172;49.948;9.208;2023-12-14T13:48:31;6.90;99.90
18091;DHT22;9172;49.948;9.208;2023-12-14T13:50:59;6.90;99.90
18091;DHT22;9172;49.948;9.208;2023-12-14T13:53:28;6.90;99.90
18091;DHT22;9172;49.948;9.208;2023-12-14T13:56:01;6.90;99.90
18091;DHT22;9172;49.948;9.208;2023-12-14T13:58:30;6.90;99.90
18091;DHT22;9172;49.948;9.208;2023-12-14T14:01:00;6.90;99.90
18091;DHT22;9172;49.948;9.208;2023-12-14T14:03:29;6.90;99.90
18091;DHT22;9172;49.948;9.208;2023-12-14T14:08:33;6.90;99.90
18091;DHT22;9172;49.948;9.208;2023-12-14T14:11:02;6.90;99.90
18091;DHT22;9172;49.948;9.208;2023-12-14T14:13:32;6.90;99.90
18091;DHT22;9172;49.948;9.208;2023-12-14T14:16:01;6.90;99.90
18091;DHT22;9172;49.948;9.208;2023-12-14T14:18:29;6.80;99.90
18091;DHT22;9172;49.948;9.208;2023-12-14T14:20:58;6.90;99.90
18091;DHT22;9172;49.948;9.208;2023-12-14T14:23:28;6.90;99.90
18091;DHT22;9172;49.948;9.208;2023-12-14T14:25:58;6.90;99.90
18091;DHT22;9172;49.948;9.208;2023-12-14T14:28:27;6.90;99.90
18091;DHT22;9172;49.948;9.208;2023-12-14T14:30:56;6.90;99.90
18091;DHT22;9172;49.948;9.208;2023-12-14T14:33:26;6.80;99.90
18091;DHT22;9172;49.948;9.208;2023-12-14T14:35:54;6.80;99.90
18091;DHT22;9172;49.948;9.208;2023-12-14T14:38:24;6.80;99.90
18091;DHT22;9172;49.948;9.208;2023-12-14T14:40:52;6.80;99.90
18091;DHT22;9172;49.948;9.208;2023-12-14T14:43:21;6.80;99.90
18091;DHT22;9172;49.948;9.208;2023-12-14T14:45:51;6.80;99.90
18091;DHT22;9172;49.948;9.208;2023-12-14T14:48:20;6.80;99.90
18091;DHT22;9172;49.948;9.208;2023-12-14T14:50:48;6.90;99.90
18091;DHT22;9172;49.948;9.208;2023-12-14T14:53:18;6.90;99.90
18091;DHT22;9172;49.948;9.208;2023-12-14T14:55:47;6.80;99.90
18091;DHT22;9172;49.948;9.208;2023-12-14T14:58:17;6.80;99.90
18091;DHT22;9172;49.948;9.208;2023-12-14T15:00:45;6.80;99.90
18091;DHT22;9172;49.948;9.208;2023-12-14T15:03:15;6.80;99.90
18091;DHT22;9172;49.948;9.208;2023-12-14T15:05:44;6.90;99.90
18091;DHT22;9172;49.948;9.208;2023-12-14T15:08:12;6.90;99.90
18091;DHT22;9172;49.948;9.208;2023-12-14T15:10:41;6.90;99.90
18091;DHT22;9172;49.948;9.208;2023-12-14T15:13:10;7.00;99.90
18091;DHT22;9172;49.948;9.208;2023-12-14T15:15:39;7.00;99.90
18091;DHT22;9172;49.948;9.208;2023-12-14T15:18:08;7.00;99.90
18091;DHT22;9172;49.948;9.208;2023-12-14T15:20:37;7.00;99.90
18091;DHT22;9172;49.948;9.208;2023-12-14T15:23:08;7.10;99.90
18091;DHT22;9172;49.948;9.208;2023-12-14T15:25:36;7.10;99.90
18091;DHT22;9172;49.948;9.208;2023-12-14T15:28:05;7.10;99.90
18091;DHT22;9172;49.948;9.208;2023-12-14T15:30:34;7.10;99.90
18091;DHT22;9172;49.948;9.208;2023-12-14T15:33:03;7.10;99.90
18091;DHT22;9172;49.948;9.208;2023-12-14T15:35:32;7.10;99.90
18091;DHT22;9172;49.948;9.208;2023-12-14T15:38:00;7.10;99.90
18091;DHT22;9172;49.948;9.208;2023-12-14T15:40:29;7.10;99.90
18091;DHT22;9172;49.948;9.208;2023-12-14T15:42:58;7.10;99.90
18091;DHT22;9172;49.948;9.208;2023-12-14T15:45:27;7.00;99.90
18091;DHT22;9172;49.948;9.208;2023-12-14T15:47:58;7.00;99.90
18091;DHT22;9172;49.948;9.208;2023-12-14T15:50:26;7.00;99.90
18091;DHT22;9172;49.948;9.208;2023-12-14T15:52:56;7.00;99.90
18091;DHT22;9172;49.948;9.208;2023-12-14T15:55:24;7.00;99.90
18091;DHT22;9172;49.948;9.208;2023-12-14T15:57:54;7.00;99.90
18091;DHT22;9172;49.948;9.208;2023-12-14T16:00:22;7.00;99.90
18091;DHT22;9172;49.948;9.208;2023-12-14T16:02:51;6.90;99.90
18091;DHT22;9172;49.948;9.208;2023-12-14T16:05:22;6.90;99.90
18091;DHT22;9172;49.948;9.208;2023-12-14T16:07:51;6.90;99.90
18091;DHT22;9172;49.948;9.208;2023-12-14T16:10:21;6.90;99.90
18091;DHT22;9172;49.948;9.208;2023-12-14T16:12:49;6.80;99.90
18091;DHT22;9172;49.948;9.208;2023-12-14T16:15:18;6.80;99.90
18091;DHT22;9172;49.948;9.208;2023-12-14T16:17:47;6.80;99.90
18091;DHT22;9172;49.948;9.208;2023-12-14T16:20:16;6.70;99.90
18091;DHT22;9172;49.948;9.208;2023-12-14T16:22:45;6.70;99.90
18091;DHT22;9172;49.948;9.208;2023-12-14T16:25:14;8.70;99.90
18091;DHT22;9172;49.948;9.208;2023-12-14T16:27:44;6.60;99.90
18091;DHT22;9172;49.948;9.208;2023-12-14T16:30:14;6.60;99.90
18091;DHT22;9172;49.948;9.208;2023-12-14T16:32:44;6.50;99.90
18091;DHT22;9172;49.948;9.208;2023-12-14T16:35:13;6.50;99.90
18091;DHT22;9172;49.948;9.208;2023-12-14T16:37:43;6.40;99.90
18091;DHT22;9172;49.948;9.208;2023-12-14T16:40:14;6.40;99.90
18091;DHT22;9172;49.948;9.208;2023-12-14T16:45:21;6.30;99.90
18091;DHT22;9172;49.948;9.208;2023-12-14T16:47:51;6.20;99.90
18091;DHT22;9172;49.948;9.208;2023-12-14T16:50:19;6.20;99.90
18091;DHT22;9172;49.948;9.208;2023-12-14T16:52:48;6.20;99.90
18091;DHT22;9172;49.948;9.208;2023-12-14T16:55:18;6.20;99.90
18091;DHT22;9172;49.948;9.208;2023-12-14T16:57:47;6.20;99.90
18091;DHT22;9172;49.948;9.208;2023-12-14T17:00:17;6.10;99.90